Santa Maria de Itabira, Brazil
Current Conditions -  °F | °C
As of 2:00 PM on Wednesday 28 Jan 2015 (Local Time) from SBLS Reporting Station
Broken Clouds Broken Clouds  
Wind Chill: 84°   Ceiling: 3500
Heat Index: 86°   Visibility: 6mi
Dew Point: 66°   Wind: 3mph
Humidity: 55%   Direction: NA
Pressure: 30.06"   Gusts: NA
Location:  19.45°S, 43.11°W
Report Text: SBLS 281600Z VRB03KT 9999 BKN035 FEW040TCU BKN100 29/19 Q1018
Loading
Personal Weather Stations






























Interactive Weather Map New forecast layout! Learn more

10-Day Weather Forecast

Advertisements
Track Severe Weather on mobile